ROMMA est une association bénévole à but non lucratif. Votre soutien est indispensable : ADHERER à ROMMA ou FAIRE un DON

Nice - (06, Alpes-Maritimes)

Côte-d'Azur (190 m)   Longitude: 07° 14' E   Latitude: 43° 43' N Station partenaire n°136
 

Détail journalier du     <<     >>

Température Precipitation Humidité Pression Vent Dir Rafale Dir. rafale Ensol.
Heure (°C) (mm) (%) (hPa) (km/h) (km/h) (min)
01:00 16.308510081NO6NO0
02:00 15.908610073NNO6NO0
03:00 15.108710062---8NNO0
04:00 14.308810042NE6NNO0
05:00 15.708110044NNO15NNO0
06:00 15.608010033N18N0
07:00 14.208410043NNO15ENE0
08:00 15.807310057ONO18NO0
09:00 17.307610076ONO16ONO20
10:00 18.407610095SO13SO60
11:00 19.906810098OSO21O60
12:00 22.505410106OSO18OSO50
13:00 23.004710109OSO21OSO60
14:00 22.805210119SSE24SSE60
15:00 22.3047101111SSE23SSE50
16:00 21.7048101210SE23SE60
17:00 21.704710127SSO16S60
18:00 20.305010136SSO16SSO10
19:00 19.205410145SO15O0
20:00 18.905310148O16O0
21:00 18.205210155ONO13ONO0
22:00 17.705410162NNO11NNO0
23:00 16.905810164NNO16NO0
minuit 17.405510168NNO19NNO0

Graphique du 07-10-2019

 

Serveur OMMA